Time;durP1;ratioP1;P1;durP2;ratioP2;P2;SDS_P1;SDS_P2;PMS_P1;PMS_P2;Temp;Humidity;BMP_temperature;BMP_pressure;BME280_temperature;BME280_humidity;BME280_pressure;Samples;Min_cycle;Max_cycle;Signal;HPM_P1;HPM_P2
2023/03/20 00:01:51;;;;;;;0.77;0.77;;;7.40;99.90;;;;;;5043309;28;20110;-82
2023/03/20 00:04:17;;;;;;;4.85;0.40;;;7.40;99.90;;;;;;5052983;28;20077;-82
2023/03/20 00:06:43;;;;;;;0.08;0.08;;;7.40;99.90;;;;;;5032105;28;20045;-82
2023/03/20 00:09:08;;;;;;;0.00;0.00;;;7.40;99.90;;;;;;5034560;28;20112;-82
2023/03/20 00:11:47;;;;;;;0.13;0.10;;;7.40;99.90;;;;;;5053891;28;20498;-82
2023/03/20 00:14:14;;;;;;;0.30;0.28;;;7.40;99.90;;;;;;5054033;28;20060;-82
2023/03/20 00:16:45;;;;;;;0.32;0.30;;;7.40;99.90;;;;;;5053091;28;20120;-82
2023/03/20 00:19:22;;;;;;;0.20;0.10;;;7.40;99.90;;;;;;5051842;28;20402;-82
2023/03/20 00:21:48;;;;;;;0.57;0.57;;;7.40;99.90;;;;;;5069991;28;20504;-82
2023/03/20 00:24:15;;;;;;;0.00;0.00;;;7.40;99.90;;;;;;5073838;28;20137;-82
2023/03/20 00:26:42;;;;;;;0.65;0.57;;;7.40;99.90;;;;;;5073289;28;20049;-81
2023/03/20 00:29:29;;;;;;;0.10;0.10;;;7.40;99.90;;;;;;5069439;28;20064;-81
2023/03/20 00:31:56;;;;;;;0.30;0.30;;;7.40;99.90;;;;;;5063635;28;20059;-82
2023/03/20 00:34:25;;;;;;;0.08;0.08;;;7.40;99.90;;;;;;5055332;28;20084;-81
2023/03/20 00:36:52;;;;;;;0.32;0.30;;;7.40;99.90;;;;;;5052731;28;20045;-83
2023/03/20 00:39:18;;;;;;;0.43;0.30;;;7.40;99.90;;;;;;5053083;28;20731;-82
2023/03/20 00:41:49;;;;;;;0.73;0.65;;;7.40;99.90;;;;;;5053103;28;20439;-82
2023/03/20 00:44:33;;;;;;;0.22;0.22;;;7.40;99.90;;;;;;5052998;28;20440;-82
2023/03/20 00:47:04;;;;;;;0.90;0.38;;;7.40;99.90;;;;;;5052883;28;20609;-82
2023/03/20 00:49:35;;;;;;;3.00;1.17;;;7.40;99.90;;;;;;5052998;28;20045;-81
2023/03/20 00:52:02;;;;;;;0.00;0.00;;;7.40;99.90;;;;;;5052368;28;20045;-81
2023/03/20 00:54:28;;;;;;;0.35;0.35;;;7.40;99.90;;;;;;5052206;28;20049;-81
2023/03/20 00:57:02;;;;;;;0.15;0.15;;;7.30;99.90;;;;;;5052753;28;20069;-82
2023/03/20 00:59:34;;;;;;;0.00;0.00;;;7.30;99.90;;;;;;5033144;28;20049;-82
2023/03/20 01:02:01;;;;;;;1.05;0.73;;;7.30;99.90;;;;;;5049925;28;20132;-82
2023/03/20 01:04:34;;;;;;;1.85;1.30;;;7.30;99.90;;;;;;5053092;28;20048;-84
2023/03/20 01:07:00;;;;;;;0.10;0.10;;;7.30;99.90;;;;;;5053289;28;20092;-82
2023/03/20 01:09:26;;;;;;;0.30;0.30;;;7.30;99.90;;;;;;5054009;28;20045;-82
2023/03/20 01:11:52;;;;;;;0.00;0.00;;;7.30;99.90;;;;;;5053238;28;20068;-82
2023/03/20 01:14:17;;;;;;;1.55;1.35;;;7.20;99.90;;;;;;5053178;28;20052;-82
2023/03/20 01:16:43;;;;;;;0.00;0.00;;;7.20;99.90;;;;;;5057361;28;20926;-82
2023/03/20 01:19:13;;;;;;;0.00;0.00;;;7.30;99.90;;;;;;5057119;28;20519;-82
2023/03/20 01:21:40;;;;;;;2.08;1.50;;;7.30;99.90;;;;;;5056541;28;20056;-82
2023/03/20 01:24:07;;;;;;;0.80;0.47;;;7.30;99.90;;;;;;5057099;28;20668;-82
2023/03/20 01:26:38;;;;;;;20.02;1.35;;;7.30;99.90;;;;;;5056695;28;20059;-81
2023/03/20 01:29:20;;;;;;;0.30;0.30;;;7.30;99.90;;;;;;5056310;28;20049;-82
2023/03/20 01:31:46;;;;;;;0.10;0.10;;;7.30;99.90;;;;;;5056538;28;20044;-82
2023/03/20 01:34:12;;;;;;;0.85;0.55;;;7.30;99.90;;;;;;5057034;28;20041;-82
2023/03/20 01:36:39;;;;;;;0.52;0.40;;;7.30;99.90;;;;;;5056918;28;20055;-83
2023/03/20 01:39:05;;;;;;;0.00;0.00;;;7.30;99.90;;;;;;5056143;28;20418;-82
2023/03/20 01:41:31;;;;;;;0.32;0.32;;;7.30;99.90;;;;;;5061834;28;20049;-82
2023/03/20 01:44:16;;;;;;;1.10;0.28;;;7.40;99.90;;;;;;5056610;28;20144;-81
2023/03/20 01:46:43;;;;;;;0.20;0.20;;;7.30;99.90;;;;;;5056182;28;20049;-82
2023/03/20 01:49:18;;;;;;;0.03;0.03;;;7.30;99.90;;;;;;5056496;28;20053;-83
2023/03/20 01:51:44;;;;;;;0.52;0.38;;;7.40;99.90;;;;;;5075202;28;20052;-83
2023/03/20 01:54:16;;;;;;;0.38;0.38;;;7.40;99.90;;;;;;5076328;28;20117;-82
2023/03/20 01:57:02;;;;;;;1.20;0.75;;;7.40;99.90;;;;;;5075895;28;20130;-82
2023/03/20 01:59:35;;;;;;;0.30;0.30;;;7.40;99.90;;;;;;5077192;28;20401;-83
2023/03/20 02:02:01;;;;;;;0.17;0.15;;;7.40;99.90;;;;;;5035345;28;20318;-83
2023/03/20 02:04:33;;;;;;;2.88;1.35;;;7.30;99.90;;;;;;5034773;28;20349;-82
2023/03/20 02:06:59;;;;;;;2.00;1.42;;;7.40;99.90;;;;;;5042421;28;20055;-83
2023/03/20 02:09:25;;;;;;;0.40;0.40;;;7.40;99.90;;;;;;5055415;28;20059;-83
2023/03/20 02:11:52;;;;;;;9.32;0.70;;;7.70;99.90;;;;;;5055662;28;20124;-83
2023/03/20 02:14:19;;;;;;;0.40;0.40;;;7.40;99.90;;;;;;5074916;28;20037;-83
2023/03/20 02:16:45;;;;;;;0.65;0.65;;;7.40;99.90;;;;;;5074536;28;20076;-82
2023/03/20 02:19:43;;;;;;;2.03;0.63;;;7.40;99.90;;;;;;5074498;28;20055;-83
2023/03/20 02:22:11;;;;;;;0.93;0.75;;;7.40;99.90;;;;;;5058049;28;20057;-82
2023/03/20 02:25:14;;;;;;;0.20;0.20;;;7.40;99.90;;;;;;5056071;28;20436;-82
2023/03/20 02:28:10;;;;;;;0.35;0.28;;;7.50;99.90;;;;;;5054945;28;20049;-83
2023/03/20 02:31:19;;;;;;;0.00;0.00;;;7.50;99.90;;;;;;5054377;28;20635;-82
2023/03/20 02:34:02;;;;;;;0.00;0.00;;;7.40;99.90;;;;;;5052774;28;20059;-83
2023/03/20 02:36:50;;;;;;;0.55;0.38;;;7.50;99.90;;;;;;5054373;28;20387;-83
2023/03/20 02:39:44;;;;;;;1.33;1.10;;;7.50;99.90;;;;;;5053664;28;20059;-82
2023/03/20 02:42:38;;;;;;;0.90;0.60;;;7.50;99.90;;;;;;5053861;28;20419;-83
2023/03/20 02:45:25;;;;;;;2.63;1.30;;;7.50;99.90;;;;;;5054423;28;20511;-82
2023/03/20 02:48:07;;;;;;;0.05;0.05;;;7.60;99.90;;;;;;5054177;28;20048;-82
2023/03/20 02:50:43;;;;;;;8.13;1.02;;;7.50;99.90;;;;;;5053932;28;20098;-83
2023/03/20 02:53:32;;;;;;;0.00;0.00;;;7.60;99.90;;;;;;5053972;28;20187;-83
2023/03/20 02:56:27;;;;;;;0.13;0.13;;;7.50;99.90;;;;;;5054896;28;20047;-82
2023/03/20 02:59:11;;;;;;;0.47;0.47;;;7.50;99.90;;;;;;5054476;28;20064;-82
2023/03/20 03:01:49;;;;;;;0.38;0.38;;;7.60;99.90;;;;;;5055346;28;20127;-83
2023/03/20 03:04:21;;;;;;;0.85;0.80;;;7.60;99.90;;;;;;5054492;28;20048;-83
2023/03/20 03:06:50;;;;;;;0.90;0.70;;;8.20;99.90;;;;;;5054778;28;20041;-83
2023/03/20 03:09:34;;;;;;;2.63;1.02;;;7.60;99.90;;;;;;5053806;28;20045;-82
2023/03/20 03:12:29;;;;;;;0.35;0.32;;;7.60;99.90;;;;;;5053654;28;20049;-82
2023/03/20 03:15:06;;;;;;;0.10;0.10;;;7.60;99.90;;;;;;5053277;28;20060;-82
2023/03/20 03:17:35;;;;;;;1.63;0.68;;;7.60;99.90;;;;;;5054523;28;20048;-83
2023/03/20 03:20:14;;;;;;;0.47;0.35;;;7.60;99.90;;;;;;5053491;28;20087;-83
2023/03/20 03:22:40;;;;;;;1.38;1.27;;;7.60;99.90;;;;;;5073201;28;20083;-83
2023/03/20 03:25:10;;;;;;;1.20;1.05;;;7.60;99.90;;;;;;5073957;28;20049;-84
2023/03/20 03:27:40;;;;;;;1.25;1.08;;;7.60;99.90;;;;;;5073622;28;20077;-83
2023/03/20 03:30:19;;;;;;;5.25;2.85;;;7.70;99.90;;;;;;5062191;28;20048;-82
2023/03/20 03:32:59;;;;;;;1.38;1.02;;;7.70;99.90;;;;;;5053628;28;20049;-82
2023/03/20 03:35:25;;;;;;;1.17;0.93;;;7.70;99.90;;;;;;5054698;28;20670;-83
2023/03/20 03:38:05;;;;;;;2.33;2.13;;;7.70;99.90;;;;;;5053150;28;20029;-83
2023/03/20 03:40:48;;;;;;;0.68;0.68;;;7.70;99.90;;;;;;5061848;28;20071;-83
2023/03/20 03:43:41;;;;;;;0.77;0.77;;;7.70;99.90;;;;;;5053477;28;20053;-82
2023/03/20 03:46:16;;;;;;;1.38;1.25;;;7.70;99.90;;;;;;5034014;28;20081;-83
2023/03/20 03:48:54;;;;;;;0.70;0.57;;;7.60;99.90;;;;;;5039547;28;20162;-83
2023/03/20 03:51:23;;;;;;;1.67;0.70;;;7.60;99.90;;;;;;5061804;28;20045;-82
2023/03/20 03:54:15;;;;;;;1.25;0.85;;;7.60;99.90;;;;;;5052941;28;20041;-83
2023/03/20 03:56:43;;;;;;;1.55;1.25;;;7.60;99.90;;;;;;5052264;28;20495;-83
2023/03/20 03:59:19;;;;;;;1.27;1.08;;;7.60;99.90;;;;;;5053857;28;20075;-82
2023/03/20 04:01:46;;;;;;;9.45;1.30;;;7.70;99.90;;;;;;5053334;28;20048;-82
2023/03/20 04:04:15;;;;;;;0.47;0.47;;;7.60;99.90;;;;;;5053056;28;20052;-83
2023/03/20 04:06:41;;;;;;;0.40;0.40;;;7.60;99.90;;;;;;5054213;28;20128;-83
2023/03/20 04:09:07;;;;;;;3.13;2.78;;;7.70;99.90;;;;;;5052925;28;20063;-82
2023/03/20 04:11:34;;;;;;;1.55;0.70;;;7.70;99.90;;;;;;5053908;28;20036;-82
2023/03/20 04:14:00;;;;;;;1.08;0.93;;;8.50;99.90;;;;;;5065735;28;20414;-83
2023/03/20 04:16:25;;;;;;;2.75;2.22;;;7.60;99.90;;;;;;5073568;28;20041;-82
2023/03/20 04:18:52;;;;;;;1.02;0.82;;;8.10;99.90;;;;;;5073041;28;20448;-82
2023/03/20 04:21:18;;;;;;;0.98;0.88;;;7.70;99.90;;;;;;5062628;28;20052;-82
2023/03/20 04:23:44;;;;;;;0.15;0.15;;;7.70;99.90;;;;;;5051517;28;20067;-82
2023/03/20 04:26:10;;;;;;;0.22;0.22;;;7.70;99.90;;;;;;5052945;28;20071;-82
2023/03/20 04:28:35;;;;;;;0.28;0.28;;;7.70;99.90;;;;;;5053420;28;20540;-82
2023/03/20 04:31:02;;;;;;;1.20;0.73;;;7.60;99.90;;;;;;5052800;28;20179;-82
2023/03/20 04:33:27;;;;;;;0.85;0.52;;;7.60;99.90;;;;;;5051667;28;20132;-83
2023/03/20 04:35:54;;;;;;;2.20;0.93;;;7.60;99.90;;;;;;5053409;28;20080;-82
2023/03/20 04:38:22;;;;;;;1.83;1.33;;;7.60;99.90;;;;;;5052574;28;20041;-83
2023/03/20 04:40:47;;;;;;;2.45;1.08;;;7.80;99.90;;;;;;5052871;28;20041;-83
2023/03/20 04:43:14;;;;;;;1.35;0.55;;;7.60;92.30;;;;;;5051918;28;20119;-83
2023/03/20 04:45:40;;;;;;;1.40;0.80;;;7.60;34.00;;;;;;5053184;28;20056;-82
2023/03/20 04:48:06;;;;;;;2.45;1.40;;;7.70;1.00;;;;;;5053172;28;20056;-83
2023/03/20 04:50:32;;;;;;;0.85;0.75;;;7.60;1.00;;;;;;5055010;28;20052;-82
2023/03/20 04:52:57;;;;;;;0.10;0.10;;;7.60;99.90;;;;;;5055871;28;20045;-82
2023/03/20 04:55:23;;;;;;;7.05;1.55;;;7.60;99.90;;;;;;5055971;28;20060;-82
2023/03/20 04:57:49;;;;;;;1.95;1.25;;;7.60;99.90;;;;;;5056818;28;20126;-83
2023/03/20 05:00:16;;;;;;;0.40;0.40;;;7.60;99.90;;;;;;5055961;28;20052;-83
2023/03/20 05:02:42;;;;;;;0.30;0.22;;;7.60;88.20;;;;;;5057204;28;20048;-82
2023/03/20 05:05:08;;;;;;;1.23;0.75;;;7.60;86.50;;;;;;5057138;28;20049;-83
2023/03/20 05:07:34;;;;;;;0.43;0.43;;;7.60;1.00;;;;;;5056128;28;20052;-82
2023/03/20 05:10:00;;;;;;;0.00;0.00;;;7.50;99.90;;;;;;5056499;28;20064;-82
2023/03/20 05:12:26;;;;;;;0.50;0.47;;;7.50;1.00;;;;;;5073760;28;20062;-82
2023/03/20 05:14:53;;;;;;;0.20;0.15;;;7.50;1.00;;;;;;5055377;28;20745;-83
2023/03/20 05:17:23;;;;;;;0.10;0.10;;;7.50;89.00;;;;;;5055307;28;20045;-82
2023/03/20 05:19:49;;;;;;;0.10;0.10;;;7.50;14.90;;;;;;5055658;28;20091;-83
2023/03/20 05:22:18;;;;;;;0.35;0.30;;;7.50;15.10;;;;;;5072371;28;20482;-82
2023/03/20 05:24:43;;;;;;;0.50;0.45;;;7.50;1.00;;;;;;5076200;28;20150;-82
2023/03/20 05:27:10;;;;;;;1.80;0.68;;;7.50;99.90;;;;;;5076418;28;20067;-82
2023/03/20 05:29:36;;;;;;;1.13;0.93;;;7.60;99.90;;;;;;5066994;28;20045;-83
2023/03/20 05:32:01;;;;;;;0.30;0.30;;;7.60;99.90;;;;;;5055284;28;20040;-83
2023/03/20 05:34:27;;;;;;;1.10;0.82;;;7.60;99.90;;;;;;5054984;28;20558;-82
2023/03/20 05:36:53;;;;;;;0.20;0.20;;;7.60;1.00;;;;;;5056249;28;20049;-82
2023/03/20 05:39:19;;;;;;;0.40;0.40;;;7.60;99.90;;;;;;5056140;28;20131;-82
2023/03/20 05:41:45;;;;;;;1.30;1.20;;;7.60;17.30;;;;;;5054616;28;20065;-82
2023/03/20 05:44:11;;;;;;;0.68;0.55;;;7.60;48.30;;;;;;5055763;28;20053;-82
2023/03/20 05:46:37;;;;;;;1.70;1.00;;;7.60;17.70;;;;;;5056442;28;20068;-83
2023/03/20 05:49:02;;;;;;;0.77;0.77;;;7.60;1.00;;;;;;5058088;28;20045;-82
2023/03/20 05:51:28;;;;;;;0.10;0.10;;;7.60;87.90;;;;;;5071902;28;20041;-83
2023/03/20 05:53:54;;;;;;;0.00;0.00;;;7.50;99.90;;;;;;5064377;28;20074;-82
2023/03/20 05:56:19;;;;;;;0.98;0.22;;;7.50;99.90;;;;;;5053891;28;20052;-83
2023/03/20 05:58:45;;;;;;;1.63;1.05;;;7.50;99.90;;;;;;5055011;28;20045;-82
2023/03/20 06:01:11;;;;;;;1.13;0.77;;;7.60;18.00;;;;;;5073003;28;20497;-82
2023/03/20 06:03:37;;;;;;;0.80;0.63;;;7.60;99.90;;;;;;5062737;28;20162;-83
2023/03/20 06:06:03;;;;;;;1.52;0.80;;;7.60;99.90;;;;;;5053617;28;20045;-82
2023/03/20 06:08:32;;;;;;;0.80;0.65;;;7.60;99.90;;;;;;5053227;28;20045;-82
2023/03/20 06:10:57;;;;;;;2.78;1.80;;;7.70;1.00;;;;;;5070438;28;20045;-84
2023/03/20 06:13:23;;;;;;;0.50;0.50;;;7.70;99.90;;;;;;5052257;28;20083;-83
2023/03/20 06:15:49;;;;;;;1.50;1.40;;;7.60;97.60;;;;;;5054162;28;20709;-82
2023/03/20 06:18:17;;;;;;;2.63;1.77;;;7.60;1.00;;;;;;5057577;28;20041;-82
2023/03/20 06:20:43;;;;;;;0.10;0.10;;;7.80;99.90;;;;;;5070448;28;20048;-82
2023/03/20 06:23:09;;;;;;;0.68;0.68;;;7.70;1.00;;;;;;5060257;28;20045;-83
2023/03/20 06:25:35;;;;;;;1.23;1.10;;;7.80;99.90;;;;;;5056058;28;20135;-82
2023/03/20 06:28:00;;;;;;;0.65;0.65;;;7.80;99.90;;;;;;5053510;28;20409;-82
2023/03/20 06:30:26;;;;;;;0.60;0.60;;;7.80;99.90;;;;;;5062500;28;20126;-82
2023/03/20 06:32:52;;;;;;;4.63;1.15;;;7.80;99.90;;;;;;5058890;28;20049;-82
2023/03/20 06:35:18;;;;;;;2.33;1.73;;;7.80;1.00;;;;;;5055134;28;20049;-83
2023/03/20 06:37:44;;;;;;;1.75;0.73;;;7.90;1.00;;;;;;5049176;28;20400;-82
2023/03/20 06:40:10;;;;;;;3.92;1.80;;;7.90;1.00;;;;;;5047769;28;20041;-82
2023/03/20 06:42:36;;;;;;;0.73;0.57;;;8.00;99.90;;;;;;5047044;28;20136;-82
2023/03/20 06:45:02;;;;;;;0.75;0.65;;;8.00;99.90;;;;;;5047425;28;20133;-83
2023/03/20 06:47:27;;;;;;;1.73;1.60;;;8.10;1.00;;;;;;5047137;28;20098;-82
2023/03/20 06:49:53;;;;;;;1.75;1.38;;;8.10;1.00;;;;;;5046977;28;20429;-82
2023/03/20 06:52:24;;;;;;;1.42;1.23;;;8.10;98.40;;;;;;5047375;28;20064;-82
2023/03/20 06:54:50;;;;;;;1.50;1.17;;;8.20;99.90;;;;;;5048577;28;20123;-83
2023/03/20 06:57:17;;;;;;;7.03;2.15;;;8.20;99.90;;;;;;5047582;28;20053;-82
2023/03/20 06:59:42;;;;;;;0.05;0.05;;;8.20;99.90;;;;;;5048323;28;20403;-82
2023/03/20 07:02:09;;;;;;;0.57;0.57;;;8.30;99.90;;;;;;5046083;28;20051;-82
2023/03/20 07:04:36;;;;;;;9.75;1.20;;;8.30;1.00;;;;;;5047093;28;20445;-82
2023/03/20 07:07:02;;;;;;;1.00;0.90;;;8.40;1.00;;;;;;5046596;28;20258;-82
2023/03/20 07:09:27;;;;;;;0.55;0.30;;;8.40;99.90;;;;;;5046485;28;20061;-82
2023/03/20 07:11:53;;;;;;;2.55;1.55;;;8.40;99.90;;;;;;5046434;28;20398;-83
2023/03/20 07:14:19;;;;;;;0.80;0.38;;;8.40;99.90;;;;;;5047319;28;20098;-82
2023/03/20 07:16:45;;;;;;;0.75;0.68;;;8.50;99.90;;;;;;5046784;28;20045;-82
2023/03/20 07:19:12;;;;;;;0.28;0.28;;;8.50;99.90;;;;;;5043440;28;20036;-83
2023/03/20 07:21:38;;;;;;;1.45;0.75;;;8.60;1.00;;;;;;5045335;28;20122;-83
2023/03/20 07:24:05;;;;;;;2.60;1.58;;;8.70;1.00;;;;;;5044733;28;20045;-83
2023/03/20 07:26:31;;;;;;;0.82;0.63;;;8.70;1.00;;;;;;5044361;28;20407;-83
2023/03/20 07:28:56;;;;;;;0.85;0.40;;;8.70;1.00;;;;;;5043818;28;20052;-83
2023/03/20 07:31:25;;;;;;;0.70;0.40;;;8.80;1.00;;;;;;5044333;28;20045;-83
2023/03/20 07:33:51;;;;;;;0.50;0.50;;;8.80;99.90;;;;;;5043985;28;20052;-83
2023/03/20 07:36:17;;;;;;;2.00;0.70;;;8.90;99.90;;;;;;5045287;28;20064;-82
2023/03/20 07:38:43;;;;;;;0.40;0.40;;;10.20;99.90;;;;;;5044401;28;20048;-83
2023/03/20 07:41:09;;;;;;;1.17;0.43;;;9.10;54.20;;;;;;5044480;28;20037;-82
2023/03/20 07:43:34;;;;;;;0.43;0.43;;;9.10;28.90;;;;;;5042754;28;20149;-82
2023/03/20 07:46:04;;;;;;;0.85;0.85;;;9.20;55.70;;;;;;5041735;28;20155;-83
2023/03/20 07:48:30;;;;;;;3.20;0.80;;;9.40;1.00;;;;;;5045369;28;20044;-83
2023/03/20 07:50:56;;;;;;;1.38;1.27;;;9.50;99.90;;;;;;5043627;28;20421;-83
2023/03/20 07:53:21;;;;;;;26.95;1.02;;;9.60;99.90;;;;;;5043421;28;20056;-82
2023/03/20 07:55:47;;;;;;;7.97;1.60;;;9.70;99.90;;;;;;5044440;28;20184;-82
2023/03/20 07:58:12;;;;;;;1.27;1.17;;;9.70;99.90;;;;;;5044981;28;20045;-82
2023/03/20 08:00:38;;;;;;;0.60;0.57;;;9.60;99.90;;;;;;5045518;28;20361;-82
2023/03/20 08:03:04;;;;;;;0.55;0.55;;;9.60;99.90;;;;;;5043913;28;20032;-83
2023/03/20 08:05:30;;;;;;;2.10;0.80;;;9.70;99.90;;;;;;5044675;28;20063;-83
2023/03/20 08:07:56;;;;;;;0.70;0.35;;;9.60;99.90;;;;;;5044392;28;20376;-82
2023/03/20 08:10:21;;;;;;;1.00;0.93;;;9.70;99.90;;;;;;5043904;28;20052;-83
2023/03/20 08:12:47;;;;;;;1.45;1.17;;;9.70;99.90;;;;;;5043733;28;20084;-83
2023/03/20 08:15:13;;;;;;;1.58;1.25;;;9.70;99.90;;;;;;5043381;28;20048;-82
2023/03/20 08:17:42;;;;;;;1.15;0.68;;;9.90;99.90;;;;;;5042861;28;20503;-83
2023/03/20 08:20:09;;;;;;;1.40;0.15;;;10.10;99.90;;;;;;5043636;28;20044;-83
2023/03/20 08:22:35;;;;;;;1.50;1.17;;;10.30;39.60;;;;;;5042727;28;20077;-83
2023/03/20 08:25:01;;;;;;;0.95;0.28;;;10.40;1.00;;;;;;5046354;28;20464;-83
2023/03/20 08:27:27;;;;;;;2.55;0.90;;;10.60;1.00;;;;;;5049616;28;20072;-82
2023/03/20 08:29:52;;;;;;;0.93;0.85;;;10.70;1.00;;;;;;5049907;28;20053;-83
2023/03/20 08:32:18;;;;;;;2.20;1.80;;;10.60;99.90;;;;;;5049836;28;20089;-83
2023/03/20 08:34:44;;;;;;;1.65;1.33;;;10.60;99.90;;;;;;5050223;28;20459;-82
2023/03/20 08:37:11;;;;;;;0.77;0.50;;;10.60;99.90;;;;;;5049871;28;20072;-82
2023/03/20 08:39:38;;;;;;;0.40;0.40;;;10.70;99.90;;;;;;5050117;28;20106;-83
2023/03/20 08:42:04;;;;;;;0.20;0.20;;;10.80;99.90;;;;;;5049870;28;20059;-82
2023/03/20 08:44:30;;;;;;;3.15;1.90;;;10.70;99.90;;;;;;5049991;28;20049;-82
2023/03/20 08:46:56;;;;;;;1.20;1.10;;;10.70;99.90;;;;;;5050054;28;20632;-82
2023/03/20 08:49:22;;;;;;;1.23;1.13;;;10.70;99.90;;;;;;5049669;28;20131;-82
2023/03/20 08:51:48;;;;;;;0.65;0.63;;;10.80;99.90;;;;;;5050676;28;20106;-82
2023/03/20 08:54:15;;;;;;;4.18;1.50;;;10.90;99.90;;;;;;5050235;28;20064;-82
2023/03/20 08:56:41;;;;;;;1.10;0.90;;;11.00;99.90;;;;;;5048455;28;20048;-83
2023/03/20 08:59:06;;;;;;;0.88;0.88;;;11.00;99.90;;;;;;5050196;28;20351;-82
2023/03/20 09:01:32;;;;;;;2.08;0.60;;;11.10;99.90;;;;;;5050303;28;20622;-83
2023/03/20 09:03:58;;;;;;;5.82;1.05;;;11.20;99.90;;;;;;5049705;28;20057;-83
2023/03/20 09:06:23;;;;;;;1.80;0.77;;;11.40;99.90;;;;;;5048386;28;20047;-83
2023/03/20 09:08:49;;;;;;;0.80;0.80;;;11.60;99.90;;;;;;5049763;28;20044;-82
2023/03/20 09:11:15;;;;;;;1.02;0.93;;;11.60;99.90;;;;;;5050588;28;20057;-82
2023/03/20 09:13:40;;;;;;;0.45;0.45;;;11.60;99.90;;;;;;5049464;28;20062;-83
2023/03/20 09:16:07;;;;;;;1.95;0.47;;;11.60;99.90;;;;;;5050186;28;20053;-82
2023/03/20 09:18:32;;;;;;;3.08;0.77;;;11.70;99.90;;;;;;5049088;28;20053;-83
2023/03/20 09:20:58;;;;;;;1.95;0.38;;;11.80;99.90;;;;;;5049466;28;20060;-82
2023/03/20 09:23:24;;;;;;;1.17;0.63;;;12.00;99.90;;;;;;5049401;28;20116;-83
2023/03/20 09:25:49;;;;;;;1.38;0.80;;;12.70;99.90;;;;;;5049273;28;20037;-83
2023/03/20 09:28:15;;;;;;;1.25;0.40;;;12.50;99.90;;;;;;5049699;28;20138;-82
2023/03/20 09:30:42;;;;;;;1.00;0.90;;;12.60;99.90;;;;;;5049445;28;20099;-82
2023/03/20 09:33:08;;;;;;;1.00;0.95;;;12.60;99.90;;;;;;5049102;28;20056;-82
2023/03/20 09:35:34;;;;;;;0.65;0.50;;;12.90;99.90;;;;;;5048623;28;20056;-82
2023/03/20 09:38:00;;;;;;;3.17;1.58;;;13.30;99.90;;;;;;5049166;28;20037;-82
2023/03/20 09:40:46;;;;;;;1.23;1.08;;;13.30;99.90;;;;;;5048306;28;20076;-82
2023/03/20 09:43:37;;;;;;;1.73;0.85;;;13.80;99.90;;;;;;5048436;28;20440;-82
2023/03/20 09:46:26;;;;;;;0.38;0.38;;;13.70;99.90;;;;;;5047278;28;20049;-83
2023/03/20 09:49:24;;;;;;;3.00;1.48;;;13.50;99.90;;;;;;5046575;28;20048;-83
2023/03/20 09:52:06;;;;;;;1.10;0.77;;;13.50;98.80;;;;;;5045833;28;20060;-82
2023/03/20 09:54:35;;;;;;;0.75;0.57;;;13.40;99.90;;;;;;5047918;28;20490;-83
2023/03/20 09:57:01;;;;;;;0.13;0.13;;;14.00;95.40;;;;;;5047544;28;20410;-82
2023/03/20 09:59:31;;;;;;;4.85;1.45;;;13.10;94.60;;;;;;5047100;28;20084;-82
2023/03/20 10:02:04;;;;;;;0.85;0.80;;;13.00;98.40;;;;;;5047299;28;20124;-82
2023/03/20 10:04:30;;;;;;;1.65;1.33;;;13.10;95.60;;;;;;5044221;28;20430;-83
2023/03/20 10:06:55;;;;;;;0.40;0.40;;;13.10;96.90;;;;;;5047751;28;20040;-82
2023/03/20 10:09:27;;;;;;;1.27;1.00;;;13.00;88.20;;;;;;5046472;28;20156;-82
2023/03/20 10:12:27;;;;;;;0.98;0.68;;;13.00;91.70;;;;;;5047231;28;20049;-82
2023/03/20 10:15:02;;;;;;;0.93;0.80;;;12.90;81.90;;;;;;5047010;28;20602;-82
2023/03/20 10:17:47;;;;;;;4.47;1.05;;;12.90;86.20;;;;;;5046826;28;20048;-82
2023/03/20 10:20:34;;;;;;;0.75;0.35;;;13.10;91.30;;;;;;5047392;28;20075;-82
2023/03/20 10:23:18;;;;;;;2.42;1.00;;;13.10;84.70;;;;;;5047153;28;20592;-82
2023/03/20 10:25:53;;;;;;;3.30;0.63;;;13.20;74.50;;;;;;5047026;28;20052;-82
2023/03/20 10:28:50;;;;;;;2.80;0.90;;;13.20;82.50;;;;;;5046457;28;20060;-82
2023/03/20 10:31:37;;;;;;;1.40;0.63;;;13.10;74.30;;;;;;5047672;28;20124;-82
2023/03/20 10:34:23;;;;;;;1.30;1.20;;;13.00;86.90;;;;;;5046617;28;20048;-82
2023/03/20 10:37:11;;;;;;;0.57;0.57;;;13.30;96.90;;;;;;5046920;28;20128;-82
2023/03/20 10:40:22;;;;;;;1.23;0.90;;;13.10;95.20;;;;;;5046073;28;20155;-82
2023/03/20 10:42:51;;;;;;;2.90;1.83;;;13.00;95.10;;;;;;5042801;28;20064;-83
2023/03/20 10:45:17;;;;;;;0.65;0.55;;;13.20;93.70;;;;;;5044158;28;20060;-82
2023/03/20 10:47:45;;;;;;;0.50;0.47;;;12.50;99.90;;;;;;5043391;28;20048;-82
2023/03/20 10:50:21;;;;;;;0.43;0.43;;;13.00;99.90;;;;;;5043706;28;20844;-83
2023/03/20 10:52:50;;;;;;;2.13;1.05;;;12.10;99.20;;;;;;5042112;28;20064;-83
2023/03/20 10:55:20;;;;;;;1.02;0.80;;;12.00;99.90;;;;;;5024325;28;20522;-82
2023/03/20 10:57:51;;;;;;;2.13;0.40;;;11.90;99.90;;;;;;5053749;28;20061;-82
2023/03/20 11:00:22;;;;;;;0.20;0.20;;;11.90;99.90;;;;;;5065132;28;20086;-82
2023/03/20 11:02:48;;;;;;;3.03;1.42;;;12.00;99.90;;;;;;5063503;28;20467;-82
2023/03/20 11:05:33;;;;;;;2.80;1.23;;;12.20;99.90;;;;;;5044362;28;20048;-83
2023/03/20 11:08:10;;;;;;;0.10;0.10;;;12.40;99.90;;;;;;5042827;28;20128;-82
2023/03/20 11:10:37;;;;;;;4.28;0.77;;;12.70;99.90;;;;;;5043714;28;20422;-82
2023/03/20 11:13:30;;;;;;;2.65;0.90;;;12.70;99.90;;;;;;5043860;28;20539;-83
2023/03/20 11:16:06;;;;;;;1.55;0.57;;;12.80;99.90;;;;;;5042685;28;20080;-82
2023/03/20 11:18:33;;;;;;;0.40;0.40;;;12.90;99.90;;;;;;5023131;28;20085;-82
2023/03/20 11:21:01;;;;;;;0.10;0.10;;;12.90;96.10;;;;;;5023149;28;20041;-81
2023/03/20 11:23:31;;;;;;;1.45;0.20;;;12.60;99.90;;;;;;5024631;28;20512;-80
2023/03/20 11:26:05;;;;;;;0.13;0.13;;;12.30;99.90;;;;;;5023820;28;20045;-80
2023/03/20 11:29:01;;;;;;;0.45;0.30;;;12.10;99.90;;;;;;5023463;28;20049;-80
2023/03/20 11:31:35;;;;;;;1.58;1.00;;;11.90;99.90;;;;;;5024306;28;20057;-80
2023/03/20 11:34:25;;;;;;;0.43;0.35;;;11.80;99.90;;;;;;5024553;28;20828;-80
2023/03/20 11:36:54;;;;;;;0.20;0.20;;;11.70;99.90;;;;;;5036802;28;20135;-80
2023/03/20 11:39:26;;;;;;;0.38;0.35;;;11.90;99.90;;;;;;5063452;28;20051;-80
2023/03/20 11:41:55;;;;;;;0.88;0.85;;;11.80;99.90;;;;;;5062680;28;20044;-80
2023/03/20 11:44:29;;;;;;;0.08;0.08;;;11.60;99.90;;;;;;5063921;28;20045;-80
2023/03/20 11:47:03;;;;;;;0.57;0.57;;;11.30;99.90;;;;;;5055543;28;20037;-80
2023/03/20 11:49:33;;;;;;;2.95;1.13;;;11.20;99.90;;;;;;5044193;28;20500;-82
2023/03/20 11:52:10;;;;;;;2.75;1.63;;;10.80;99.90;;;;;;5043005;28;20087;-82
2023/03/20 11:54:37;;;;;;;3.30;1.20;;;10.30;99.90;;;;;;5043056;28;20521;-82
2023/03/20 11:57:02;;;;;;;0.30;0.20;;;10.00;1.00;;;;;;5043427;28;20084;-80
2023/03/20 11:59:34;;;;;;;0.30;0.20;;;9.90;29.80;;;;;;5042253;28;20076;-80
2023/03/20 12:02:17;;;;;;;5.25;1.35;;;10.00;99.90;;;;;;5043818;28;20053;-80
2023/03/20 12:04:46;;;;;;;0.68;0.52;;;10.30;1.00;;;;;;5043579;28;20048;-80
2023/03/20 12:07:32;;;;;;;0.35;0.35;;;10.30;1.00;;;;;;5042237;28;20162;-80
2023/03/20 12:10:12;;;;;;;0.20;0.20;;;10.30;99.90;;;;;;5046110;28;20136;-80
2023/03/20 12:12:59;;;;;;;1.23;0.90;;;10.30;99.90;;;;;;5043313;28;20072;-80
2023/03/20 12:15:33;;;;;;;0.65;0.32;;;10.30;99.90;;;;;;5043977;28;20117;-80
2023/03/20 12:18:13;;;;;;;0.55;0.45;;;10.30;99.90;;;;;;5043179;28;20083;-82
2023/03/20 12:20:53;;;;;;;1.55;0.90;;;10.30;99.90;;;;;;5059286;28;20059;-81
2023/03/20 12:23:29;;;;;;;0.00;0.00;;;10.40;99.90;;;;;;5064141;28;20048;-80
2023/03/20 12:26:08;;;;;;;;;;;10.30;99.90;;;;;;5064269;28;20123;-80
2023/03/20 12:28:50;;;;;;;0.20;0.20;;;10.30;1.00;;;;;;5050845;28;19924;-80
2023/03/20 12:31:21;;;;;;;0.45;0.45;;;10.20;1.00;;;;;;5029450;28;20056;-81
2023/03/20 12:33:53;;;;;;;0.30;0.30;;;10.20;1.00;;;;;;5047102;28;20120;-81
2023/03/20 12:36:32;;;;;;;0.75;0.65;;;10.20;1.00;;;;;;5049425;28;20049;-81
2023/03/20 12:39:01;;;;;;;0.00;0.00;;;10.40;1.00;;;;;;5048672;28;20563;-81
2023/03/20 12:41:56;;;;;;;0.00;0.00;;;10.40;1.00;;;;;;5030738;28;20085;-81
2023/03/20 12:44:52;;;;;;;0.10;0.10;;;10.60;1.00;;;;;;5030630;28;20525;-81
2023/03/20 12:47:46;;;;;;;0.63;0.63;;;10.70;1.00;;;;;;5051066;28;20041;-82
2023/03/20 12:50:38;;;;;;;0.00;0.00;;;11.00;1.00;;;;;;5071306;28;20056;-81
2023/03/20 12:53:43;;;;;;;1.80;1.08;;;11.20;1.00;;;;;;5070839;28;20057;-81
2023/03/20 12:56:30;;;;;;;0.00;0.00;;;11.20;99.90;;;;;;5069405;28;20104;-81
2023/03/20 12:59:18;;;;;;;;;;;11.10;99.90;;;;;;5051041;28;20049;-81
2023/03/20 13:01:57;;;;;;;0.20;0.20;;;11.00;99.90;;;;;;5051228;28;19924;-81
2023/03/20 13:04:47;;;;;;;0.28;0.28;;;10.80;1.00;;;;;;5050657;28;20135;-81
2023/03/20 13:07:43;;;;;;;0.30;0.30;;;10.50;1.00;;;;;;5050170;28;20128;-81
2023/03/20 13:10:21;;;;;;;0.20;0.15;;;10.40;99.90;;;;;;5050106;28;20049;-83
2023/03/20 13:13:18;;;;;;;0.00;0.00;;;10.40;99.90;;;;;;5054026;28;20045;-81
2023/03/20 13:16:01;;;;;;;0.65;0.55;;;10.30;99.90;;;;;;5045311;28;20364;-82
2023/03/20 13:19:02;;;;;;;0.20;0.20;;;10.30;99.90;;;;;;5031992;28;20503;-81
2023/03/20 13:21:41;;;;;;;1.45;0.98;;;10.20;1.00;;;;;;5028684;28;20411;-80